Time;durP1;ratioP1;P1;durP2;ratioP2;P2;SDS_P1;SDS_P2;PMS_P1;PMS_P2;Temp;Humidity;BMP_temperature;BMP_pressure;BME280_temperature;BME280_humidity;BME280_pressure;Samples;Min_cycle;Max_cycle;Signal;HPM_P1;HPM_P2
2021/11/23 00:03:45;;;;;;;9.13;5.17;;;;;;;;;;6250873;23;20167;-90
2021/11/23 00:06:59;;;;;;;9.93;5.20;;;;;;;;;;6250257;22;20199;-90
2021/11/23 00:13:53;;;;;;;9.30;5.27;;;;;;;;;;6250053;22;20158;-90
2021/11/23 00:17:19;;;;;;;12.63;4.90;;;;;;;;;;6250503;22;20194;-90
2021/11/23 01:08:19;;;;;;;10.43;5.43;;;;;;;;;;6175213;23;20180;-89
2021/11/23 01:11:31;;;;;;;9.90;5.00;;;;;;;;;;6159307;23;20241;-90
2021/11/23 01:14:44;;;;;;;10.87;5.10;;;;;;;;;;6159791;23;20196;-89
2021/11/23 01:17:58;;;;;;;10.63;5.67;;;;;;;;;;6158906;23;20169;-89
2021/11/23 01:21:10;;;;;;;12.67;6.23;;;;;;;;;;6158283;23;20197;-90
2021/11/23 01:24:23;;;;;;;10.93;6.10;;;;;;;;;;6160181;23;20156;-92
2021/11/23 01:27:35;;;;;;;13.53;5.40;;;;;;;;;;6158968;23;20172;-90
2021/11/23 01:30:47;;;;;;;10.40;5.67;;;;;;;;;;6158053;23;20673;-90
2021/11/23 01:33:58;;;;;;;10.90;5.80;;;;;;;;;;6157160;23;20316;-91
2021/11/23 01:37:11;;;;;;;12.93;5.47;;;;;;;;;;6158229;23;20169;-90
2021/11/23 01:40:25;;;;;;;10.80;5.13;;;;;;;;;;6157835;23;20195;-90
2021/11/23 01:43:37;;;;;;;12.47;6.10;;;;;;;;;;6156499;23;20160;-90
2021/11/23 01:46:49;;;;;;;11.63;5.30;;;;;;;;;;6156728;23;20160;-90
2021/11/23 01:50:01;;;;;;;9.80;5.63;;;;;;;;;;6157481;23;20157;-91
2021/11/23 01:53:14;;;;;;;11.20;5.87;;;;;;;;;;6156815;23;20229;-90
2021/11/23 01:56:39;;;;;;;10.67;5.67;;;;;;;;;;6157969;23;20212;-91
2021/11/23 01:59:51;;;;;;;12.30;5.50;;;;;;;;;;6156803;23;20161;-90
2021/11/23 02:03:03;;;;;;;11.00;5.90;;;;;;;;;;6158173;23;20244;-89
2021/11/23 02:06:16;;;;;;;10.20;5.13;;;;;;;;;;6157124;23;20282;-89
2021/11/23 02:09:28;;;;;;;12.50;5.50;;;;;;;;;;6159625;23;20173;-90
2021/11/23 02:12:42;;;;;;;11.83;5.90;;;;;;;;;;6159654;23;20229;-90
2021/11/23 02:15:55;;;;;;;11.93;6.40;;;;;;;;;;6158201;23;20152;-90
2021/11/23 02:19:07;;;;;;;11.40;5.80;;;;;;;;;;6144522;23;20169;-90
2021/11/23 02:22:20;;;;;;;11.83;6.13;;;;;;;;;;6160423;23;20644;-91
2021/11/23 02:25:32;;;;;;;15.13;5.93;;;;;;;;;;6157927;23;20176;-90
2021/11/23 02:28:45;;;;;;;12.43;5.57;;;;;;;;;;6157168;23;20169;-89
2021/11/23 02:31:57;;;;;;;11.57;6.57;;;;;;;;;;6156748;23;20168;-92
2021/11/23 02:35:11;;;;;;;12.53;6.57;;;;;;;;;;6157562;23;20279;-89
2021/11/23 02:38:25;;;;;;;10.90;5.93;;;;;;;;;;6156668;23;20160;-92
2021/11/23 02:41:41;;;;;;;14.33;6.07;;;;;;;;;;6157501;23;20208;-91
2021/11/23 02:44:54;;;;;;;11.57;6.07;;;;;;;;;;6157445;23;20250;-91
2021/11/23 02:48:08;;;;;;;15.63;5.60;;;;;;;;;;6157894;23;20172;-91
2021/11/23 02:51:19;;;;;;;15.00;6.10;;;;;;;;;;6157265;23;20223;-92
2021/11/23 02:54:33;;;;;;;12.07;6.03;;;;;;;;;;6156645;23;20165;-90
2021/11/23 02:57:45;;;;;;;13.00;6.10;;;;;;;;;;6155318;23;20664;-90
2021/11/23 03:00:56;;;;;;;16.37;6.60;;;;;;;;;;6155636;23;20197;-91
2021/11/23 03:04:08;;;;;;;11.33;5.90;;;;;;;;;;6155310;23;20237;-91
2021/11/23 03:07:20;;;;;;;10.50;5.53;;;;;;;;;;6155676;23;20188;-90
2021/11/23 03:10:33;;;;;;;13.53;6.70;;;;;;;;;;6155829;23;20185;-90
2021/11/23 03:13:47;;;;;;;13.40;6.30;;;;;;;;;;6157419;23;20168;-91
2021/11/23 03:16:59;;;;;;;12.53;6.23;;;;;;;;;;6155760;23;20172;-91
2021/11/23 03:20:13;;;;;;;11.57;5.87;;;;;;;;;;6156626;23;20165;-91
2021/11/23 03:23:25;;;;;;;14.27;6.20;;;;;;;;;;6156485;23;20171;-92
2021/11/23 03:26:39;;;;;;;11.80;6.03;;;;;;;;;;6156114;23;20177;-90
2021/11/23 03:29:50;;;;;;;12.90;6.37;;;;;;;;;;6156904;23;20169;-90
2021/11/23 03:33:06;;;;;;;13.03;5.80;;;;;;;;;;6155657;23;20168;-90
2021/11/23 03:36:17;;;;;;;11.70;6.53;;;;;;;;;;6156676;23;20267;-90
2021/11/23 03:39:29;;;;;;;11.50;6.20;;;;;;;;;;6157503;23;20161;-92
2021/11/23 03:42:44;;;;;;;15.57;6.63;;;;;;;;;;6156344;23;20200;-90
2021/11/23 03:45:57;;;;;;;14.53;6.63;;;;;;;;;;6155865;23;20165;-92
2021/11/23 03:49:08;;;;;;;13.17;5.67;;;;;;;;;;6172445;23;20148;-91
2021/11/23 03:52:21;;;;;;;12.03;6.20;;;;;;;;;;6156398;23;20169;-90
2021/11/23 03:55:36;;;;;;;15.60;6.10;;;;;;;;;;6154130;23;20177;-92
2021/11/23 03:58:50;;;;;;;12.80;6.57;;;;;;;;;;6155202;23;20172;-92
2021/11/23 04:02:02;;;;;;;12.47;6.80;;;;;;;;;;6155760;23;20196;-91
2021/11/23 04:05:14;;;;;;;15.20;7.53;;;;;;;;;;6155123;23;20236;-90
2021/11/23 04:08:26;;;;;;;20.27;8.10;;;;;;;;;;6155301;23;20168;-92
2021/11/23 04:11:38;;;;;;;16.57;8.27;;;;;;;;;;6154523;23;20191;-91
2021/11/23 04:14:52;;;;;;;23.50;8.23;;;;;;;;;;6155761;23;20194;-90
2021/11/23 04:18:04;;;;;;;19.40;8.57;;;;;;;;;;6155335;23;20172;-90
2021/11/23 04:21:16;;;;;;;18.80;7.90;;;;;;;;;;6155739;23;20250;-92
2021/11/23 04:24:28;;;;;;;29.97;8.20;;;;;;;;;;6154470;23;20623;-91
2021/11/23 04:27:40;;;;;;;22.87;8.43;;;;;;;;;;6155332;23;20176;-90
2021/11/23 04:30:53;;;;;;;40.23;9.30;;;;;;;;;;6156508;23;20169;-92
2021/11/23 04:34:05;;;;;;;27.73;8.33;;;;;;;;;;6155593;23;20168;-90
2021/11/23 04:37:17;;;;;;;36.60;9.20;;;;;;;;;;6155537;23;20169;-91
2021/11/23 04:40:28;;;;;;;33.57;9.30;;;;;;;;;;6154965;23;20180;-89
2021/11/23 04:43:41;;;;;;;30.73;8.20;;;;;;;;;;6172609;23;20175;-91
2021/11/23 04:46:54;;;;;;;50.57;9.20;;;;;;;;;;6155063;23;20169;-91
2021/11/23 04:50:06;;;;;;;39.23;9.00;;;;;;;;;;6157021;23;20217;-90
2021/11/23 04:53:18;;;;;;;20.37;7.27;;;;;;;;;;6154456;23;20173;-89
2021/11/23 04:56:30;;;;;;;20.83;7.37;;;;;;;;;;6155707;23;20215;-88
2021/11/23 04:59:43;;;;;;;22.97;8.13;;;;;;;;;;6156826;23;20250;-89
2021/11/23 05:02:59;;;;;;;14.37;6.10;;;;;;;;;;6155414;23;20296;-90
2021/11/23 05:06:12;;;;;;;13.27;6.30;;;;;;;;;;6155824;23;20259;-89
2021/11/23 05:09:25;;;;;;;15.83;6.23;;;;;;;;;;6157539;23;20172;-88
2021/11/23 05:12:37;;;;;;;13.90;6.60;;;;;;;;;;6157085;23;20177;-90
2021/11/23 05:15:49;;;;;;;15.53;6.83;;;;;;;;;;6156785;23;20164;-93
2021/11/23 05:19:01;;;;;;;17.90;7.90;;;;;;;;;;6156390;23;20180;-91
2021/11/23 05:22:25;;;;;;;15.90;7.83;;;;;;;;;;6153086;23;20293;-89
2021/11/23 05:25:37;;;;;;;31.80;9.20;;;;;;;;;;6154611;23;20225;-89
2021/11/23 05:28:49;;;;;;;27.47;7.77;;;;;;;;;;6154834;23;20168;-91
2021/11/23 05:32:01;;;;;;;21.83;8.20;;;;;;;;;;6155333;23;20248;-91
2021/11/23 05:35:13;;;;;;;15.37;7.17;;;;;;;;;;6154770;23;20217;-91
2021/11/23 05:38:27;;;;;;;14.53;7.47;;;;;;;;;;6157092;23;20212;-90
2021/11/23 05:41:41;;;;;;;14.93;7.20;;;;;;;;;;6173057;23;20768;-90
2021/11/23 05:44:53;;;;;;;16.17;7.83;;;;;;;;;;6156948;23;20168;-91
2021/11/23 05:48:06;;;;;;;29.47;8.60;;;;;;;;;;6156866;23;20173;-92
2021/11/23 05:51:18;;;;;;;25.73;8.13;;;;;;;;;;6158102;23;20337;-90
2021/11/23 05:54:34;;;;;;;25.80;8.47;;;;;;;;;;6158691;23;20168;-90
2021/11/23 05:57:45;;;;;;;29.20;8.67;;;;;;;;;;6158350;23;20218;-91
2021/11/23 06:00:57;;;;;;;26.47;8.30;;;;;;;;;;6158027;23;20180;-90
2021/11/23 06:04:10;;;;;;;39.03;7.97;;;;;;;;;;6156264;23;20249;-90
2021/11/23 06:07:22;;;;;;;19.80;8.33;;;;;;;;;;6157366;23;20223;-91
2021/11/23 06:10:36;;;;;;;31.23;7.53;;;;;;;;;;6156712;23;20374;-91
2021/11/23 06:13:48;;;;;;;26.37;8.30;;;;;;;;;;6156936;23;20168;-90
2021/11/23 06:17:00;;;;;;;26.40;8.90;;;;;;;;;;6156184;23;20177;-90
2021/11/23 06:20:12;;;;;;;31.90;9.13;;;;;;;;;;6159414;23;20205;-89
2021/11/23 06:23:25;;;;;;;25.00;8.70;;;;;;;;;;6157746;23;20317;-90
2021/11/23 06:26:38;;;;;;;25.73;10.10;;;;;;;;;;6157547;23;20169;-88
2021/11/23 06:29:52;;;;;;;21.33;9.13;;;;;;;;;;6157063;23;20176;-90
2021/11/23 06:33:04;;;;;;;22.77;8.77;;;;;;;;;;6156302;23;20177;-92
2021/11/23 06:36:25;;;;;;;17.90;8.40;;;;;;;;;;6158154;23;20179;-91
2021/11/23 06:39:37;;;;;;;44.03;9.90;;;;;;;;;;6157008;23;20172;-92
2021/11/23 06:42:50;;;;;;;24.40;10.07;;;;;;;;;;6158708;23;20195;-91
2021/11/23 06:46:07;;;;;;;28.47;10.00;;;;;;;;;;6157084;23;20172;-89
2021/11/23 06:49:19;;;;;;;21.00;9.20;;;;;;;;;;6156965;23;20196;-89
2021/11/23 06:52:41;;;;;;;18.33;8.30;;;;;;;;;;6156857;23;20173;-88
2021/11/23 06:55:53;;;;;;;18.53;9.00;;;;;;;;;;6158355;23;20164;-90
2021/11/23 06:59:06;;;;;;;19.53;9.07;;;;;;;;;;6157014;23;20669;-89
2021/11/23 07:02:20;;;;;;;22.33;9.53;;;;;;;;;;6156071;23;20248;-89
2021/11/23 07:05:35;;;;;;;25.10;9.73;;;;;;;;;;6156921;23;20184;-91
2021/11/23 07:08:46;;;;;;;21.73;9.67;;;;;;;;;;6156534;23;20172;-89
2021/11/23 07:20:04;;;;;;;30.80;8.77;;;;;;;;;;6173113;23;20545;-91
2021/11/23 07:23:24;;;;;;;26.63;11.33;;;;;;;;;;6156107;23;20192;-91
2021/11/23 07:26:37;;;;;;;26.60;8.83;;;;;;;;;;6156597;23;20222;-91
2021/11/23 07:29:51;;;;;;;30.83;9.50;;;;;;;;;;6156583;23;20169;-89
2021/11/23 07:33:04;;;;;;;23.70;8.27;;;;;;;;;;6156585;23;20240;-89
2021/11/23 07:36:19;;;;;;;29.17;8.63;;;;;;;;;;6158887;23;20248;-91
2021/11/23 07:39:30;;;;;;;61.27;9.40;;;;;;;;;;6155563;23;20631;-86
2021/11/23 07:42:43;;;;;;;62.10;9.03;;;;;;;;;;6156710;23;20305;-90
2021/11/23 07:45:55;;;;;;;26.90;9.47;;;;;;;;;;6157719;23;20214;-91
2021/11/23 07:49:09;;;;;;;30.10;10.40;;;;;;;;;;6156059;23;20169;-90
2021/11/23 07:52:23;;;;;;;36.87;9.50;;;;;;;;;;6155665;23;20196;-88
2021/11/23 07:55:36;;;;;;;36.97;9.57;;;;;;;;;;6157349;23;20168;-88
2021/11/23 07:58:49;;;;;;;28.27;9.57;;;;;;;;;;6157498;23;20214;-89
2021/11/23 08:02:00;;;;;;;26.93;10.73;;;;;;;;;;6156814;23;20612;-90
2021/11/23 08:05:13;;;;;;;26.53;9.67;;;;;;;;;;6157220;23;20164;-89
2021/11/23 08:08:29;;;;;;;31.50;10.83;;;;;;;;;;6143462;23;20204;-91
2021/11/23 08:11:40;;;;;;;22.70;9.03;;;;;;;;;;6158365;23;20518;-90
2021/11/23 08:14:54;;;;;;;25.63;8.63;;;;;;;;;;6158182;23;20164;-90
2021/11/23 08:18:07;;;;;;;24.63;8.80;;;;;;;;;;6157907;23;20235;-90
2021/11/23 08:21:20;;;;;;;15.37;8.27;;;;;;;;;;6157544;23;20692;-89
2021/11/23 08:24:46;;;;;;;15.20;7.57;;;;;;;;;;6156313;23;20217;-89
2021/11/23 08:27:58;;;;;;;24.63;9.27;;;;;;;;;;6156214;23;20165;-90
2021/11/23 08:31:10;;;;;;;15.37;7.40;;;;;;;;;;6154834;23;20165;-91
2021/11/23 08:34:23;;;;;;;18.13;8.33;;;;;;;;;;6154735;23;20192;-90
2021/11/23 08:37:38;;;;;;;16.53;7.60;;;;;;;;;;6153765;23;20165;-87
2021/11/23 08:40:53;;;;;;;16.30;7.93;;;;;;;;;;6154338;23;20173;-89
2021/11/23 08:44:05;;;;;;;15.93;7.83;;;;;;;;;;6156173;23;20235;-91
2021/11/23 08:47:19;;;;;;;17.10;8.87;;;;;;;;;;6156302;23;20257;-90
2021/11/23 08:50:30;;;;;;;21.40;8.80;;;;;;;;;;6155798;23;20172;-91
2021/11/23 08:53:43;;;;;;;20.37;9.97;;;;;;;;;;6157542;23;20180;-89
2021/11/23 08:57:00;;;;;;;20.00;9.43;;;;;;;;;;6156512;23;20172;-90
2021/11/23 09:00:26;;;;;;;20.77;10.13;;;;;;;;;;6155415;23;20255;-89
2021/11/23 09:03:41;;;;;;;22.00;9.30;;;;;;;;;;6155326;23;20244;-90
2021/11/23 09:06:54;;;;;;;22.50;9.50;;;;;;;;;;6157959;23;20204;-89
2021/11/23 09:10:09;;;;;;;17.43;8.23;;;;;;;;;;6158444;23;20172;-90
2021/11/23 09:13:27;;;;;;;19.73;9.30;;;;;;;;;;6172131;23;20172;-88
2021/11/23 14:23:54;;;;;;;8.07;4.60;;;;;;;;;;6169664;22;20274;-89
2021/11/23 14:27:07;;;;;;;10.30;4.63;;;;;;;;;;6218158;23;20190;-90
2021/11/23 14:30:19;;;;;;;11.13;4.43;;;;;;;;;;6217989;23;20163;-91
2021/11/23 14:33:32;;;;;;;13.23;4.80;;;;;;;;;;6220082;23;20245;-89
2021/11/23 14:36:47;;;;;;;12.37;4.90;;;;;;;;;;6218958;23;20167;-90
2021/11/23 14:40:01;;;;;;;11.90;5.40;;;;;;;;;;6216421;23;20168;-90
2021/11/23 14:43:16;;;;;;;9.83;4.93;;;;;;;;;;6219105;23;20211;-89
2021/11/23 14:46:28;;;;;;;7.97;4.43;;;;;;;;;;6219609;23;20163;-90
2021/11/23 14:49:41;;;;;;;21.00;8.97;;;;;;;;;;6220792;23;20262;-90
2021/11/23 14:52:54;;;;;;;17.57;6.07;;;;;;;;;;6218554;23;20714;-92
2021/11/23 14:56:08;;;;;;;11.77;5.37;;;;;;;;;;6217328;23;20182;-89
2021/11/23 14:59:23;;;;;;;14.47;4.63;;;;;;;;;;6217368;23;20210;-88
2021/11/23 15:02:35;;;;;;;14.57;5.17;;;;;;;;;;6216056;23;20195;-92
2021/11/23 15:06:29;;;;;;;13.77;6.93;;;;;;;;;;6216043;23;20179;-90
2021/11/23 15:09:43;;;;;;;12.70;6.23;;;;;;;;;;6221384;23;20627;-91
2021/11/23 15:13:07;;;;;;;35.13;10.70;;;;;;;;;;6222540;23;20152;-90
2021/11/23 15:16:19;;;;;;;14.73;6.47;;;;;;;;;;6222423;23;20166;-90
2021/11/23 15:19:32;;;;;;;16.50;7.00;;;;;;;;;;6220235;23;20154;-90
2021/11/23 15:22:48;;;;;;;12.77;5.73;;;;;;;;;;6219425;23;20210;-89
2021/11/23 15:26:01;;;;;;;11.90;5.97;;;;;;;;;;6219225;23;20167;-90
2021/11/23 15:29:30;;;;;;;10.17;5.47;;;;;;;;;;6220026;23;20207;-92
2021/11/23 15:32:45;;;;;;;24.33;6.90;;;;;;;;;;6219624;23;20191;-89
2021/11/23 15:42:50;;;;;;;15.17;7.47;;;;;;;;;;6222216;23;20325;-89
2021/11/23 15:46:05;;;;;;;16.33;7.73;;;;;;;;;;6233788;23;20370;-88
2021/11/23 15:49:23;;;;;;;20.00;9.97;;;;;;;;;;6215730;23;20175;-89
2021/11/23 15:57:15;;;;;;;18.33;8.33;;;;;;;;;;6237950;23;20200;-89
2021/11/23 23:42:26;;;;;;;25.50;10.30;;;;;;;;;;6187634;22;20227;-91
2021/11/23 23:45:39;;;;;;;22.20;10.00;;;;;;;;;;6235487;23;20166;-91
2021/11/23 23:48:51;;;;;;;24.03;10.53;;;;;;;;;;6233893;23;20207;-89
2021/11/23 23:52:02;;;;;;;21.87;10.60;;;;;;;;;;6233296;23;20182;-89
2021/11/23 23:55:14;;;;;;;22.70;9.63;;;;;;;;;;6232043;23;20174;-89
